sensor_id;sensor_type;location;lat;lon;timestamp;temperature;humidity
25200;DHT22;33094;48.782;9.162;2023-11-21T13:11:20;10.70;99.90
25200;DHT22;33094;48.782;9.162;2023-11-21T13:13:46;11.00;99.90
25200;DHT22;33094;48.782;9.162;2023-11-21T13:16:12;11.10;99.90
25200;DHT22;33094;48.782;9.162;2023-11-21T13:18:38;11.20;99.90
25200;DHT22;33094;48.782;9.162;2023-11-21T13:21:09;11.30;99.90
25200;DHT22;33094;48.782;9.162;2023-11-21T13:23:38;11.10;99.90
25200;DHT22;33094;48.782;9.162;2023-11-21T13:26:04;10.90;99.90
25200;DHT22;33094;48.782;9.162;2023-11-21T13:28:34;10.60;99.90
25200;DHT22;33094;48.782;9.162;2023-11-21T13:31:01;10.50;99.90
25200;DHT22;33094;48.782;9.162;2023-11-21T13:33:29;10.40;99.90
25200;DHT22;33094;48.782;9.162;2023-11-21T13:35:55;10.40;99.90
25200;DHT22;33094;48.782;9.162;2023-11-21T13:38:22;10.20;99.90
25200;DHT22;33094;48.782;9.162;2023-11-21T13:40:53;10.10;99.90
25200;DHT22;33094;48.782;9.162;2023-11-21T13:43:21;10.10;99.90
25200;DHT22;33094;48.782;9.162;2023-11-21T13:45:51;10.00;99.90
25200;DHT22;33094;48.782;9.162;2023-11-21T13:48:38;10.00;99.90
25200;DHT22;33094;48.782;9.162;2023-11-21T13:51:09;10.00;99.90
25200;DHT22;33094;48.782;9.162;2023-11-21T13:53:48;10.10;99.90
25200;DHT22;33094;48.782;9.162;2023-11-21T13:56:16;10.00;99.90
25200;DHT22;33094;48.782;9.162;2023-11-21T13:58:50;10.10;99.90
25200;DHT22;33094;48.782;9.162;2023-11-21T14:01:22;9.80;99.90
25200;DHT22;33094;48.782;9.162;2023-11-21T14:04:01;10.00;99.90
25200;DHT22;33094;48.782;9.162;2023-11-21T14:06:53;9.90;99.90
25200;DHT22;33094;48.782;9.162;2023-11-21T14:09:24;10.00;99.90
25200;DHT22;33094;48.782;9.162;2023-11-21T14:11:57;10.10;99.90
25200;DHT22;33094;48.782;9.162;2023-11-21T14:14:27;10.20;99.90
25200;DHT22;33094;48.782;9.162;2023-11-21T14:16:56;10.20;99.90
25200;DHT22;33094;48.782;9.162;2023-11-21T14:19:22;10.20;99.90
25200;DHT22;33094;48.782;9.162;2023-11-21T14:21:53;10.20;99.90
25200;DHT22;33094;48.782;9.162;2023-11-21T14:24:19;10.20;99.90
25200;DHT22;33094;48.782;9.162;2023-11-21T14:26:47;10.20;99.90
25200;DHT22;33094;48.782;9.162;2023-11-21T14:29:18;10.20;99.90
25200;DHT22;33094;48.782;9.162;2023-11-21T14:31:49;10.10;99.90
25200;DHT22;33094;48.782;9.162;2023-11-21T14:34:22;10.20;99.90
25200;DHT22;33094;48.782;9.162;2023-11-21T14:36:48;10.10;99.90
25200;DHT22;33094;48.782;9.162;2023-11-21T14:39:14;10.10;99.90
25200;DHT22;33094;48.782;9.162;2023-11-21T14:41:53;10.10;99.90
25200;DHT22;33094;48.782;9.162;2023-11-21T14:44:21;10.10;99.90
25200;DHT22;33094;48.782;9.162;2023-11-21T14:46:52;10.10;99.90
25200;DHT22;33094;48.782;9.162;2023-11-21T14:49:19;10.10;99.90
25200;DHT22;33094;48.782;9.162;2023-11-21T14:51:51;10.10;99.90
25200;DHT22;33094;48.782;9.162;2023-11-21T14:54:30;10.20;99.90
25200;DHT22;33094;48.782;9.162;2023-11-21T14:57:06;10.30;99.90
25200;DHT22;33094;48.782;9.162;2023-11-21T14:59:37;10.40;99.90
25200;DHT22;33094;48.782;9.162;2023-11-21T15:02:03;10.40;99.90
25200;DHT22;33094;48.782;9.162;2023-11-21T15:04:43;10.20;99.90
25200;DHT22;33094;48.782;9.162;2023-11-21T15:07:09;10.20;99.90
25200;DHT22;33094;48.782;9.162;2023-11-21T15:09:36;10.30;99.90
25200;DHT22;33094;48.782;9.162;2023-11-21T15:12:10;10.30;99.90
25200;DHT22;33094;48.782;9.162;2023-11-21T15:14:36;10.10;99.90
25200;DHT22;33094;48.782;9.162;2023-11-21T15:17:03;10.30;99.90
25200;DHT22;33094;48.782;9.162;2023-11-21T15:19:31;10.20;99.90
25200;DHT22;33094;48.782;9.162;2023-11-21T15:21:57;10.20;99.90
25200;DHT22;33094;48.782;9.162;2023-11-21T15:24:23;10.20;99.90
25200;DHT22;33094;48.782;9.162;2023-11-21T15:26:50;10.10;99.90
25200;DHT22;33094;48.782;9.162;2023-11-21T15:29:16;10.10;99.90
25200;DHT22;33094;48.782;9.162;2023-11-21T15:31:42;10.10;99.90
25200;DHT22;33094;48.782;9.162;2023-11-21T15:34:16;10.10;99.90
25200;DHT22;33094;48.782;9.162;2023-11-21T15:36:42;10.10;99.90
25200;DHT22;33094;48.782;9.162;2023-11-21T15:39:09;10.10;99.90
25200;DHT22;33094;48.782;9.162;2023-11-21T15:41:38;10.00;99.90
25200;DHT22;33094;48.782;9.162;2023-11-21T15:44:06;10.00;99.90
25200;DHT22;33094;48.782;9.162;2023-11-21T15:46:36;10.00;99.90
25200;DHT22;33094;48.782;9.162;2023-11-21T15:49:04;10.00;99.90
25200;DHT22;33094;48.782;9.162;2023-11-21T15:51:38;10.00;99.90
25200;DHT22;33094;48.782;9.162;2023-11-21T15:54:04;10.00;99.90
25200;DHT22;33094;48.782;9.162;2023-11-21T15:56:29;9.90;99.90
25200;DHT22;33094;48.782;9.162;2023-11-21T15:58:55;9.90;99.90
25200;DHT22;33094;48.782;9.162;2023-11-21T16:01:21;10.00;99.90
25200;DHT22;33094;48.782;9.162;2023-11-21T16:03:47;9.80;99.90
25200;DHT22;33094;48.782;9.162;2023-11-21T16:06:14;9.90;99.90
25200;DHT22;33094;48.782;9.162;2023-11-21T16:08:40;9.90;99.90
25200;DHT22;33094;48.782;9.162;2023-11-21T16:11:06;9.90;99.90
25200;DHT22;33094;48.782;9.162;2023-11-21T16:13:32;9.80;99.90
25200;DHT22;33094;48.782;9.162;2023-11-21T16:16:00;9.80;99.90
25200;DHT22;33094;48.782;9.162;2023-11-21T16:18:25;9.90;99.90
25200;DHT22;33094;48.782;9.162;2023-11-21T16:20:52;9.90;99.90
25200;DHT22;33094;48.782;9.162;2023-11-21T16:23:17;9.90;99.90
25200;DHT22;33094;48.782;9.162;2023-11-21T16:25:43;9.90;99.90
25200;DHT22;33094;48.782;9.162;2023-11-21T16:28:09;9.90;99.90
25200;DHT22;33094;48.782;9.162;2023-11-21T16:30:35;9.90;99.90
25200;DHT22;33094;48.782;9.162;2023-11-21T16:33:02;9.90;99.90
25200;DHT22;33094;48.782;9.162;2023-11-21T16:35:28;9.90;99.90
25200;DHT22;33094;48.782;9.162;2023-11-21T16:37:54;9.90;99.90
25200;DHT22;33094;48.782;9.162;2023-11-21T16:40:21;9.80;99.90
25200;DHT22;33094;48.782;9.162;2023-11-21T16:42:47;9.80;99.90
25200;DHT22;33094;48.782;9.162;2023-11-21T16:45:13;9.80;99.90
25200;DHT22;33094;48.782;9.162;2023-11-21T16:47:42;9.90;99.90
25200;DHT22;33094;48.782;9.162;2023-11-21T16:50:08;9.90;99.90
25200;DHT22;33094;48.782;9.162;2023-11-21T16:52:34;9.90;99.90
25200;DHT22;33094;48.782;9.162;2023-11-21T16:54:59;9.80;99.90
25200;DHT22;33094;48.782;9.162;2023-11-21T16:57:25;9.70;99.90
25200;DHT22;33094;48.782;9.162;2023-11-21T16:59:51;9.70;99.90
25200;DHT22;33094;48.782;9.162;2023-11-21T17:02:18;9.70;99.90
25200;DHT22;33094;48.782;9.162;2023-11-21T17:04:44;9.60;99.90
25200;DHT22;33094;48.782;9.162;2023-11-21T17:07:15;9.60;99.90
25200;DHT22;33094;48.782;9.162;2023-11-21T17:09:41;9.50;99.90
25200;DHT22;33094;48.782;9.162;2023-11-21T17:12:06;9.50;99.90
25200;DHT22;33094;48.782;9.162;2023-11-21T17:14:32;9.40;99.90
25200;DHT22;33094;48.782;9.162;2023-11-21T17:17:01;9.40;99.90
25200;DHT22;33094;48.782;9.162;2023-11-21T17:19:27;9.40;99.90
25200;DHT22;33094;48.782;9.162;2023-11-21T17:21:57;9.60;99.90
25200;DHT22;33094;48.782;9.162;2023-11-21T17:24:23;9.40;99.90
25200;DHT22;33094;48.782;9.162;2023-11-21T17:26:48;9.30;99.90
25200;DHT22;33094;48.782;9.162;2023-11-21T17:29:15;9.40;99.90
25200;DHT22;33094;48.782;9.162;2023-11-21T17:31:43;9.40;99.90
25200;DHT22;33094;48.782;9.162;2023-11-21T17:34:08;9.40;99.90
25200;DHT22;33094;48.782;9.162;2023-11-21T17:36:34;9.40;99.90
25200;DHT22;33094;48.782;9.162;2023-11-21T17:39:00;9.30;99.90
25200;DHT22;33094;48.782;9.162;2023-11-21T17:41:26;9.20;99.90
25200;DHT22;33094;48.782;9.162;2023-11-21T17:43:52;9.30;99.90
25200;DHT22;33094;48.782;9.162;2023-11-21T17:46:22;9.30;99.90
25200;DHT22;33094;48.782;9.162;2023-11-21T17:48:49;9.40;99.90
25200;DHT22;33094;48.782;9.162;2023-11-21T17:51:15;9.50;99.90
25200;DHT22;33094;48.782;9.162;2023-11-21T17:53:41;9.50;99.90
25200;DHT22;33094;48.782;9.162;2023-11-21T17:56:18;9.30;99.90
25200;DHT22;33094;48.782;9.162;2023-11-21T17:58:45;9.40;99.90
25200;DHT22;33094;48.782;9.162;2023-11-21T18:01:11;9.50;99.90
25200;DHT22;33094;48.782;9.162;2023-11-21T18:03:37;9.50;99.90
25200;DHT22;33094;48.782;9.162;2023-11-21T18:06:05;9.60;99.90
25200;DHT22;33094;48.782;9.162;2023-11-21T18:08:31;9.60;99.90
25200;DHT22;33094;48.782;9.162;2023-11-21T18:11:00;9.60;99.90
25200;DHT22;33094;48.782;9.162;2023-11-21T18:13:30;9.60;99.90
25200;DHT22;33094;48.782;9.162;2023-11-21T18:15:55;9.60;99.90
25200;DHT22;33094;48.782;9.162;2023-11-21T18:18:21;9.80;99.90
25200;DHT22;33094;48.782;9.162;2023-11-21T18:20:47;9.50;99.90
25200;DHT22;33094;48.782;9.162;2023-11-21T18:23:12;9.50;99.90
25200;DHT22;33094;48.782;9.162;2023-11-21T18:25:39;9.60;99.90
25200;DHT22;33094;48.782;9.162;2023-11-21T18:28:05;9.70;99.90
25200;DHT22;33094;48.782;9.162;2023-11-21T18:30:30;9.50;99.90
25200;DHT22;33094;48.782;9.162;2023-11-21T18:32:56;9.40;99.90
25200;DHT22;33094;48.782;9.162;2023-11-21T18:35:22;9.40;99.90
25200;DHT22;33094;48.782;9.162;2023-11-21T18:37:48;9.50;99.90
25200;DHT22;33094;48.782;9.162;2023-11-21T18:40:13;9.50;99.90
25200;DHT22;33094;48.782;9.162;2023-11-21T18:42:41;9.50;99.90
25200;DHT22;33094;48.782;9.162;2023-11-21T18:45:10;9.60;99.90
25200;DHT22;33094;48.782;9.162;2023-11-21T18:47:36;9.60;99.90
25200;DHT22;33094;48.782;9.162;2023-11-21T18:50:02;9.80;99.90
25200;DHT22;33094;48.782;9.162;2023-11-21T18:52:28;9.70;99.90
25200;DHT22;33094;48.782;9.162;2023-11-21T18:54:54;9.60;99.90
25200;DHT22;33094;48.782;9.162;2023-11-21T18:57:20;9.60;99.90
25200;DHT22;33094;48.782;9.162;2023-11-21T18:59:45;9.60;99.90
25200;DHT22;33094;48.782;9.162;2023-11-21T19:02:11;9.60;99.90
25200;DHT22;33094;48.782;9.162;2023-11-21T19:04:42;9.60;99.90
25200;DHT22;33094;48.782;9.162;2023-11-21T19:07:09;9.50;99.90
25200;DHT22;33094;48.782;9.162;2023-11-21T19:09:35;9.50;99.90
25200;DHT22;33094;48.782;9.162;2023-11-21T19:12:01;9.50;99.90
25200;DHT22;33094;48.782;9.162;2023-11-21T19:14:47;9.50;99.90
25200;DHT22;33094;48.782;9.162;2023-11-21T19:17:15;9.50;99.90
25200;DHT22;33094;48.782;9.162;2023-11-21T19:19:41;9.50;99.90
25200;DHT22;33094;48.782;9.162;2023-11-21T19:22:07;9.40;99.90
25200;DHT22;33094;48.782;9.162;2023-11-21T19:24:34;9.40;99.90
25200;DHT22;33094;48.782;9.162;2023-11-21T19:27:00;9.50;99.90
25200;DHT22;33094;48.782;9.162;2023-11-21T19:29:27;9.50;99.90
25200;DHT22;33094;48.782;9.162;2023-11-21T19:31:53;9.60;99.90
25200;DHT22;33094;48.782;9.162;2023-11-21T19:34:20;9.70;99.90
25200;DHT22;33094;48.782;9.162;2023-11-21T19:36:46;9.70;99.90
25200;DHT22;33094;48.782;9.162;2023-11-21T19:39:12;9.70;99.90
25200;DHT22;33094;48.782;9.162;2023-11-21T19:41:41;9.70;99.90
25200;DHT22;33094;48.782;9.162;2023-11-21T19:44:07;9.70;99.90
25200;DHT22;33094;48.782;9.162;2023-11-21T19:46:35;9.60;99.90
25200;DHT22;33094;48.782;9.162;2023-11-21T19:49:00;9.60;99.90
25200;DHT22;33094;48.782;9.162;2023-11-21T19:51:28;9.50;99.90
25200;DHT22;33094;48.782;9.162;2023-11-21T19:54:00;9.60;99.90
25200;DHT22;33094;48.782;9.162;2023-11-21T19:56:26;9.40;99.90
25200;DHT22;33094;48.782;9.162;2023-11-21T19:58:52;9.40;99.90
25200;DHT22;33094;48.782;9.162;2023-11-21T20:01:18;9.50;99.90
25200;DHT22;33094;48.782;9.162;2023-11-21T20:03:45;9.40;99.90
25200;DHT22;33094;48.782;9.162;2023-11-21T20:06:10;9.40;99.90
25200;DHT22;33094;48.782;9.162;2023-11-21T20:08:36;9.40;99.90
25200;DHT22;33094;48.782;9.162;2023-11-21T20:11:04;9.50;99.90
25200;DHT22;33094;48.782;9.162;2023-11-21T20:13:30;9.50;99.90
25200;DHT22;33094;48.782;9.162;2023-11-21T20:15:56;9.50;99.90
25200;DHT22;33094;48.782;9.162;2023-11-21T20:18:22;9.60;99.90
25200;DHT22;33094;48.782;9.162;2023-11-21T20:20:51;9.60;99.90
25200;DHT22;33094;48.782;9.162;2023-11-21T20:23:22;9.70;99.90
25200;DHT22;33094;48.782;9.162;2023-11-21T20:25:52;9.70;99.90
25200;DHT22;33094;48.782;9.162;2023-11-21T20:33:34;9.50;99.90
25200;DHT22;33094;48.782;9.162;2023-11-21T20:36:04;9.20;99.90
25200;DHT22;33094;48.782;9.162;2023-11-21T20:43:43;9.20;99.90
25200;DHT22;33094;48.782;9.162;2023-11-21T20:48:41;9.20;99.90
25200;DHT22;33094;48.782;9.162;2023-11-21T20:51:07;9.20;99.90
25200;DHT22;33094;48.782;9.162;2023-11-21T20:53:33;9.20;99.90
25200;DHT22;33094;48.782;9.162;2023-11-21T20:56:02;9.30;99.90
25200;DHT22;33094;48.782;9.162;2023-11-21T20:58:28;9.40;99.90
25200;DHT22;33094;48.782;9.162;2023-11-21T21:03:32;9.40;99.90
25200;DHT22;33094;48.782;9.162;2023-11-21T21:05:58;9.30;99.90
25200;DHT22;33094;48.782;9.162;2023-11-21T21:08:26;9.40;99.90
25200;DHT22;33094;48.782;9.162;2023-11-21T21:10:53;9.40;99.90
25200;DHT22;33094;48.782;9.162;2023-11-21T21:13:20;9.30;99.90
25200;DHT22;33094;48.782;9.162;2023-11-21T21:15:58;9.30;99.90
25200;DHT22;33094;48.782;9.162;2023-11-21T21:18:27;9.30;99.90
25200;DHT22;33094;48.782;9.162;2023-11-21T21:23:40;9.40;99.90
25200;DHT22;33094;48.782;9.162;2023-11-21T21:31:52;9.30;99.90
25200;DHT22;33094;48.782;9.162;2023-11-21T21:34:31;9.30;99.90
25200;DHT22;33094;48.782;9.162;2023-11-21T21:37:03;9.30;99.90
25200;DHT22;33094;48.782;9.162;2023-11-21T21:39:42;9.40;99.90
25200;DHT22;33094;48.782;9.162;2023-11-21T21:52:54;9.30;99.90
25200;DHT22;33094;48.782;9.162;2023-11-21T21:55:27;9.30;99.90
25200;DHT22;33094;48.782;9.162;2023-11-21T21:58:03;9.40;99.90
25200;DHT22;33094;48.782;9.162;2023-11-21T22:00:41;9.30;99.90
25200;DHT22;33094;48.782;9.162;2023-11-21T22:03:19;9.40;99.90
25200;DHT22;33094;48.782;9.162;2023-11-21T22:05:54;9.40;99.90
25200;DHT22;33094;48.782;9.162;2023-11-21T22:08:41;9.40;99.90
25200;DHT22;33094;48.782;9.162;2023-11-21T22:13:48;9.30;99.90
25200;DHT22;33094;48.782;9.162;2023-11-21T22:16:21;9.30;99.90
25200;DHT22;33094;48.782;9.162;2023-11-21T22:18:57;9.30;99.90
25200;DHT22;33094;48.782;9.162;2023-11-21T22:21:34;9.20;99.90
25200;DHT22;33094;48.782;9.162;2023-11-21T22:24:06;9.30;99.90
25200;DHT22;33094;48.782;9.162;2023-11-21T22:26:52;9.30;99.90
25200;DHT22;33094;48.782;9.162;2023-11-21T22:29:48;9.20;99.90
25200;DHT22;33094;48.782;9.162;2023-11-21T22:34:52;9.20;99.90
25200;DHT22;33094;48.782;9.162;2023-11-21T22:37:36;9.30;99.90
25200;DHT22;33094;48.782;9.162;2023-11-21T22:40:15;9.30;99.90
25200;DHT22;33094;48.782;9.162;2023-11-21T22:42:53;9.30;99.90
25200;DHT22;33094;48.782;9.162;2023-11-21T22:45:30;9.40;99.90
25200;DHT22;33094;48.782;9.162;2023-11-21T22:48:02;9.50;99.90
25200;DHT22;33094;48.782;9.162;2023-11-21T22:53:09;9.30;99.90
25200;DHT22;33094;48.782;9.162;2023-11-21T22:58:37;9.20;99.90
25200;DHT22;33094;48.782;9.162;2023-11-21T23:01:11;9.20;99.90
25200;DHT22;33094;48.782;9.162;2023-11-21T23:03:40;9.30;99.90
25200;DHT22;33094;48.782;9.162;2023-11-21T23:06:09;9.40;99.90
25200;DHT22;33094;48.782;9.162;2023-11-21T23:08:47;9.30;99.90
25200;DHT22;33094;48.782;9.162;2023-11-21T23:11:33;9.10;99.90
25200;DHT22;33094;48.782;9.162;2023-11-21T23:14:01;9.20;99.90
25200;DHT22;33094;48.782;9.162;2023-11-21T23:16:30;9.00;99.90
25200;DHT22;33094;48.782;9.162;2023-11-21T23:19:08;9.10;99.90
25200;DHT22;33094;48.782;9.162;2023-11-21T23:21:41;9.20;99.90
25200;DHT22;33094;48.782;9.162;2023-11-21T23:24:07;9.10;99.90
25200;DHT22;33094;48.782;9.162;2023-11-21T23:26:54;9.20;99.90
25200;DHT22;33094;48.782;9.162;2023-11-21T23:29:25;9.20;99.90
25200;DHT22;33094;48.782;9.162;2023-11-21T23:31:56;9.20;99.90
25200;DHT22;33094;48.782;9.162;2023-11-21T23:34:27;9.20;99.90
25200;DHT22;33094;48.782;9.162;2023-11-21T23:37:00;9.20;99.90
25200;DHT22;33094;48.782;9.162;2023-11-21T23:39:35;9.20;99.90
25200;DHT22;33094;48.782;9.162;2023-11-21T23:42:03;9.20;99.90
25200;DHT22;33094;48.782;9.162;2023-11-21T23:44:30;9.10;99.90
25200;DHT22;33094;48.782;9.162;2023-11-21T23:46:56;9.10;99.90
25200;DHT22;33094;48.782;9.162;2023-11-21T23:49:24;9.10;99.90
25200;DHT22;33094;48.782;9.162;2023-11-21T23:51:52;9.20;99.90
25200;DHT22;33094;48.782;9.162;2023-11-21T23:54:20;9.20;99.90
25200;DHT22;33094;48.782;9.162;2023-11-21T23:56:48;9.20;99.90
25200;DHT22;33094;48.782;9.162;2023-11-21T23:59:15;9.20;99.90
